Time;durP1;ratioP1;P1;durP2;ratioP2;P2;SDS_P1;SDS_P2;PMS_P1;PMS_P2;Temp;Humidity;BMP_temperature;BMP_pressure;BME280_temperature;BME280_humidity;BME280_pressure;Samples;Min_cycle;Max_cycle;Signal;HPM_P1;HPM_P2
2021/05/14 00:00:58;;;;;;;10.52;7.20;;;16.00;70.80;;;;;;6156251;23;20443;-72
2021/05/14 00:03:24;;;;;;;11.77;7.93;;;16.20;70.00;;;;;;6182283;23;20013;-72
2021/05/14 00:05:49;;;;;;;11.23;7.15;;;16.40;69.40;;;;;;6182124;23;20438;-72
2021/05/14 00:08:15;;;;;;;11.68;7.22;;;16.50;68.80;;;;;;6155650;23;20286;-72
2021/05/14 00:10:44;;;;;;;11.25;7.28;;;16.40;68.70;;;;;;6183593;23;20017;-73
2021/05/14 00:13:12;;;;;;;6.25;2.85;;;16.40;68.30;;;;;;6155345;23;20013;-72
2021/05/14 00:15:38;;;;;;;11.23;7.03;;;16.20;65.90;;;;;;6182138;23;20067;-73
2021/05/14 00:18:04;;;;;;;11.60;7.55;;;15.80;67.50;;;;;;6183982;23;20477;-73
2021/05/14 00:20:30;;;;;;;10.45;6.10;;;15.60;69.20;;;;;;6182934;23;20013;-72
2021/05/14 00:22:56;;;;;;;10.50;5.95;;;15.40;69.30;;;;;;6182815;23;20024;-73
2021/05/14 00:25:22;;;;;;;9.00;5.20;;;15.10;69.40;;;;;;6182676;23;20021;-71
2021/05/14 00:27:48;;;;;;;11.30;4.65;;;15.00;69.80;;;;;;6182939;23;20439;-71
2021/05/14 00:30:14;;;;;;;7.43;3.08;;;15.00;69.10;;;;;;6184082;23;20097;-71
2021/05/14 00:32:40;;;;;;;8.40;4.50;;;15.00;68.60;;;;;;6155715;23;20013;-69
2021/05/14 00:35:08;;;;;;;14.32;7.80;;;14.80;68.10;;;;;;6182857;23;20024;-69
2021/05/14 00:37:35;;;;;;;11.63;7.20;;;14.60;71.10;;;;;;6181888;23;20044;-69
2021/05/14 00:40:01;;;;;;;11.73;8.02;;;14.60;72.10;;;;;;6182593;23;20020;-69
2021/05/14 00:42:27;;;;;;;11.65;7.05;;;14.90;72.20;;;;;;6155554;23;20009;-69
2021/05/14 00:44:53;;;;;;;11.13;7.20;;;15.30;71.60;;;;;;6182517;23;20024;-69
2021/05/14 00:47:20;;;;;;;11.52;7.40;;;15.60;70.60;;;;;;6158437;23;20009;-69
2021/05/14 00:49:46;;;;;;;11.30;7.20;;;15.90;69.70;;;;;;6181544;23;20009;-69
2021/05/14 00:52:17;;;;;;;13.20;7.88;;;16.20;68.70;;;;;;6133576;23;20040;-69
2021/05/14 00:54:45;;;;;;;13.15;8.48;;;16.40;67.90;;;;;;6183591;23;20071;-69
2021/05/14 00:57:12;;;;;;;11.65;7.60;;;16.50;67.60;;;;;;6182715;23;20720;-69
2021/05/14 00:59:38;;;;;;;9.90;6.13;;;16.60;67.20;;;;;;6155328;23;20013;-70
2021/05/14 01:02:05;;;;;;;10.35;6.55;;;16.70;67.00;;;;;;6155802;23;20495;-69
2021/05/14 01:04:36;;;;;;;10.85;7.05;;;16.80;66.60;;;;;;6181476;23;20040;-69
2021/05/14 01:07:03;;;;;;;11.43;6.75;;;16.80;66.60;;;;;;6181327;23;20020;-70
2021/05/14 01:09:29;;;;;;;10.77;6.75;;;16.80;66.30;;;;;;6156459;23;20092;-69
2021/05/14 01:11:55;;;;;;;9.50;6.45;;;16.90;66.10;;;;;;6155786;23;20386;-69
2021/05/14 01:14:21;;;;;;;10.35;7.25;;;17.00;65.90;;;;;;6157442;23;20013;-69
2021/05/14 01:16:47;;;;;;;9.93;7.55;;;17.10;63.90;;;;;;6181297;23;20459;-69
2021/05/14 01:19:13;;;;;;;10.80;7.45;;;17.10;63.40;;;;;;6182869;23;20335;-69
2021/05/14 01:21:39;;;;;;;10.82;7.45;;;17.10;63.10;;;;;;6181620;23;20013;-70
2021/05/14 01:24:06;;;;;;;9.48;6.78;;;17.20;62.90;;;;;;6155862;23;20024;-70
2021/05/14 01:26:32;;;;;;;11.60;7.93;;;17.20;62.80;;;;;;6181241;23;20017;-69
2021/05/14 01:29:00;;;;;;;10.15;7.18;;;17.20;62.70;;;;;;6183083;23;20051;-69
2021/05/14 01:31:25;;;;;;;10.57;7.57;;;17.30;62.70;;;;;;6181314;23;20017;-70
2021/05/14 01:33:51;;;;;;;9.57;7.20;;;17.20;62.50;;;;;;6182407;23;20382;-69
2021/05/14 01:36:18;;;;;;;9.52;7.47;;;17.30;62.70;;;;;;6156958;23;20020;-70
2021/05/14 01:38:46;;;;;;;10.65;7.65;;;17.30;62.50;;;;;;6181499;23;20471;-70
2021/05/14 01:41:11;;;;;;;9.43;7.18;;;17.30;62.30;;;;;;6154884;23;20013;-70
2021/05/14 01:43:37;;;;;;;9.25;6.57;;;17.30;62.10;;;;;;6154864;23;20020;-70
2021/05/14 01:46:05;;;;;;;8.38;6.40;;;17.30;61.90;;;;;;6154574;23;20045;-70
2021/05/14 01:48:31;;;;;;;9.52;6.93;;;17.30;61.80;;;;;;6154729;23;20032;-70
2021/05/14 01:51:08;;;;;;;8.27;6.47;;;17.30;61.70;;;;;;6181352;23;20092;-70
2021/05/14 01:53:34;;;;;;;8.90;6.40;;;17.30;61.60;;;;;;6182756;23;20135;-70
2021/05/14 01:55:59;;;;;;;9.02;5.85;;;17.20;61.50;;;;;;6180890;23;20052;-70
2021/05/14 01:58:25;;;;;;;8.23;5.95;;;17.20;61.80;;;;;;6131800;23;20024;-69
2021/05/14 02:00:51;;;;;;;25.13;6.97;;;17.20;61.70;;;;;;6155024;23;20020;-69
2021/05/14 02:03:18;;;;;;;9.27;6.13;;;17.20;61.70;;;;;;6157211;23;20021;-69
2021/05/14 02:05:44;;;;;;;8.18;5.78;;;17.30;61.90;;;;;;6183242;23;20025;-69
2021/05/14 02:08:10;;;;;;;10.40;6.10;;;17.30;61.70;;;;;;6156354;23;20020;-69
2021/05/14 02:10:35;;;;;;;8.23;6.30;;;17.30;61.70;;;;;;6155172;23;20627;-69
2021/05/14 02:13:01;;;;;;;11.80;6.22;;;17.30;61.70;;;;;;6182589;23;20016;-69
2021/05/14 02:15:27;;;;;;;8.88;5.50;;;17.30;61.70;;;;;;6156376;23;20312;-69
2021/05/14 02:17:53;;;;;;;8.77;5.70;;;17.30;61.40;;;;;;6155069;23;20021;-70
2021/05/14 02:20:22;;;;;;;8.70;5.57;;;17.30;61.10;;;;;;6180573;23;20221;-70
2021/05/14 02:22:47;;;;;;;7.18;4.75;;;17.30;61.10;;;;;;6155963;23;20098;-69
2021/05/14 02:25:13;;;;;;;7.15;4.72;;;17.30;61.50;;;;;;6180905;23;20100;-70
2021/05/14 02:27:39;;;;;;;9.50;5.22;;;17.30;61.10;;;;;;6180729;23;20067;-70
2021/05/14 02:30:07;;;;;;;8.40;5.43;;;17.20;61.30;;;;;;6155923;23;20528;-69
2021/05/14 02:32:33;;;;;;;6.93;4.80;;;17.20;61.40;;;;;;6180892;23;20015;-70
2021/05/14 02:34:59;;;;;;;8.20;5.03;;;17.20;61.60;;;;;;6182273;23;20775;-69
2021/05/14 02:37:25;;;;;;;8.30;4.75;;;17.20;61.30;;;;;;6182166;23;20022;-70
2021/05/14 02:39:51;;;;;;;7.40;4.88;;;17.20;61.20;;;;;;6182253;23;20044;-69
2021/05/14 02:42:17;;;;;;;8.57;4.50;;;17.20;61.20;;;;;;6181618;23;20339;-70
2021/05/14 02:44:43;;;;;;;7.38;4.38;;;17.20;61.20;;;;;;6181699;23;20021;-70
2021/05/14 02:47:09;;;;;;;6.18;4.10;;;17.20;61.30;;;;;;6181887;23;20044;-71
2021/05/14 02:49:36;;;;;;;8.07;4.40;;;17.20;61.10;;;;;;6180875;23;20013;-70
2021/05/14 02:52:03;;;;;;;6.03;4.05;;;17.10;61.00;;;;;;6180553;23;20012;-70
2021/05/14 02:54:29;;;;;;;5.55;3.67;;;17.20;60.90;;;;;;6154797;23;20013;-69
2021/05/14 02:56:54;;;;;;;5.88;4.53;;;17.20;60.90;;;;;;6180290;23;20131;-69
2021/05/14 02:59:21;;;;;;;6.68;3.90;;;17.10;60.80;;;;;;6156122;23;20027;-70
2021/05/14 03:01:48;;;;;;;5.95;3.80;;;17.10;60.90;;;;;;6182659;23;20067;-69
2021/05/14 03:04:16;;;;;;;9.57;4.35;;;17.10;60.90;;;;;;6182682;23;20025;-70
2021/05/14 03:06:42;;;;;;;6.20;3.83;;;17.20;61.20;;;;;;6182998;23;20100;-69
2021/05/14 03:09:07;;;;;;;7.97;4.28;;;17.20;61.20;;;;;;6154068;23;20490;-69
2021/05/14 03:11:33;;;;;;;5.30;3.70;;;17.20;61.00;;;;;;6157105;23;20024;-69
2021/05/14 03:13:59;;;;;;;5.95;3.42;;;17.20;60.80;;;;;;6180584;23;20032;-69
2021/05/14 03:16:25;;;;;;;6.75;3.67;;;17.20;60.90;;;;;;6154242;23;20327;-69
2021/05/14 03:18:51;;;;;;;5.68;3.60;;;17.20;60.70;;;;;;6155881;23;20016;-69
2021/05/14 03:21:16;;;;;;;4.95;3.40;;;17.20;60.70;;;;;;6183050;23;20076;-69
2021/05/14 03:23:42;;;;;;;7.90;3.20;;;17.20;60.70;;;;;;6181411;23;20013;-69
2021/05/14 03:26:08;;;;;;;5.40;3.53;;;17.20;60.70;;;;;;6181716;23;20044;-69
2021/05/14 03:28:34;;;;;;;5.07;3.38;;;17.20;60.80;;;;;;6182473;23;20421;-69
2021/05/14 03:31:00;;;;;;;4.80;3.35;;;17.30;61.00;;;;;;6154419;23;20024;-69
2021/05/14 03:33:25;;;;;;;5.35;3.33;;;17.20;60.80;;;;;;6181308;23;20092;-70
2021/05/14 03:35:53;;;;;;;4.32;3.05;;;17.30;60.70;;;;;;6154035;23;20439;-69
2021/05/14 03:38:22;;;;;;;7.30;3.45;;;17.30;60.70;;;;;;6182071;23;20009;-69
2021/05/14 03:40:49;;;;;;;6.28;3.80;;;17.30;60.70;;;;;;6181070;23;20095;-69
2021/05/14 03:43:15;;;;;;;5.25;3.08;;;17.30;60.60;;;;;;6155939;23;20087;-69
2021/05/14 03:45:41;;;;;;;5.25;2.95;;;17.30;60.40;;;;;;6180630;23;20067;-69
2021/05/14 03:48:19;;;;;;;5.95;3.53;;;17.30;60.30;;;;;;6156829;23;20092;-69
2021/05/14 03:50:53;;;;;;;6.28;3.00;;;17.30;60.10;;;;;;6182100;23;20024;-69
2021/05/14 03:53:21;;;;;;;4.18;2.55;;;17.30;60.00;;;;;;6180639;23;20092;-70
2021/05/14 03:55:50;;;;;;;5.93;3.13;;;17.30;60.00;;;;;;6181166;23;20100;-70
2021/05/14 03:58:16;;;;;;;5.30;2.80;;;17.20;60.00;;;;;;6181750;23;20041;-69
2021/05/14 04:00:41;;;;;;;4.35;2.92;;;17.20;59.90;;;;;;6181714;23;20013;-70
2021/05/14 04:03:07;;;;;;;6.22;3.25;;;17.20;59.90;;;;;;6154066;23;20379;-70
2021/05/14 04:05:38;;;;;;;5.18;2.80;;;17.20;59.70;;;;;;6182445;23;20050;-69
2021/05/14 04:08:04;;;;;;;4.63;2.35;;;17.20;59.60;;;;;;6181856;23;20021;-69
2021/05/14 04:10:38;;;;;;;5.88;2.90;;;17.20;59.80;;;;;;6156526;23;20079;-70
2021/05/14 04:16:03;;;;;;;4.28;2.38;;;17.20;59.90;;;;;;6182682;23;20486;-69
2021/05/14 04:18:29;;;;;;;5.95;2.83;;;17.20;59.80;;;;;;6184415;23;20013;-70
2021/05/14 04:20:55;;;;;;;6.82;2.50;;;17.20;59.70;;;;;;6183196;23;20013;-69
2021/05/14 04:23:21;;;;;;;7.72;3.00;;;17.30;59.80;;;;;;6182697;23;20074;-69
2021/05/14 04:25:47;;;;;;;6.72;2.72;;;17.30;59.70;;;;;;6181777;23;20017;-69
2021/05/14 04:28:13;;;;;;;5.88;2.40;;;17.30;59.50;;;;;;6157498;23;20059;-69
2021/05/14 04:30:39;;;;;;;4.00;1.98;;;17.30;59.60;;;;;;6184513;23;20013;-69
2021/05/14 04:33:05;;;;;;;7.13;2.35;;;17.30;59.80;;;;;;6183168;23;20017;-69
2021/05/14 04:35:33;;;;;;;4.47;2.53;;;17.30;59.70;;;;;;6182772;23;20044;-69
2021/05/14 04:37:59;;;;;;;5.15;2.13;;;17.30;59.60;;;;;;6131270;23;20013;-69
2021/05/14 04:40:25;;;;;;;5.47;2.15;;;17.30;59.80;;;;;;6181707;23;20023;-69
2021/05/14 04:42:51;;;;;;;4.78;2.25;;;17.30;59.50;;;;;;6155516;23;20043;-69
2021/05/14 04:45:17;;;;;;;5.75;2.47;;;17.30;59.50;;;;;;6155416;23;20016;-69
2021/05/14 04:47:43;;;;;;;6.85;2.58;;;17.30;59.40;;;;;;6155498;23;20013;-69
2021/05/14 04:50:11;;;;;;;4.93;2.33;;;17.30;59.40;;;;;;6182255;23;20032;-69
2021/05/14 04:52:38;;;;;;;5.05;1.95;;;17.30;59.50;;;;;;6184814;23;20092;-70
2021/05/14 04:55:05;;;;;;;7.22;2.97;;;17.30;59.50;;;;;;6181849;23;20466;-69
2021/05/14 04:57:31;;;;;;;7.95;1.92;;;17.30;59.30;;;;;;6181772;23;20020;-69
2021/05/14 04:59:57;;;;;;;3.47;1.60;;;17.30;59.30;;;;;;6156216;23;20013;-69
2021/05/14 05:02:22;;;;;;;4.75;2.45;;;17.30;59.20;;;;;;6183791;23;20125;-69
2021/05/14 05:04:48;;;;;;;4.88;2.30;;;17.30;59.40;;;;;;6157363;23;20017;-69
2021/05/14 05:07:15;;;;;;;7.38;2.08;;;17.30;59.40;;;;;;6181344;23;20229;-69
2021/05/14 05:09:41;;;;;;;4.65;2.55;;;17.30;59.40;;;;;;6181373;23;20076;-70
2021/05/14 05:12:07;;;;;;;4.45;1.98;;;17.30;59.30;;;;;;6155056;23;20023;-69
2021/05/14 05:14:32;;;;;;;9.20;2.58;;;17.40;59.30;;;;;;6154617;23;20391;-69
2021/05/14 05:16:59;;;;;;;6.60;2.33;;;17.40;59.20;;;;;;6181473;23;20462;-69
2021/05/14 05:19:25;;;;;;;4.38;1.83;;;17.40;59.10;;;;;;6181395;23;20009;-68
2021/05/14 05:21:51;;;;;;;4.95;1.95;;;17.30;59.10;;;;;;6181835;23;20688;-69
2021/05/14 05:24:17;;;;;;;8.43;2.33;;;17.30;59.20;;;;;;6155105;23;20347;-69
2021/05/14 05:26:42;;;;;;;7.72;2.33;;;17.30;58.90;;;;;;6182345;23;20024;-69
2021/05/14 05:29:08;;;;;;;8.25;2.13;;;17.10;59.00;;;;;;6182699;23;20017;-69
2021/05/14 05:31:34;;;;;;;10.35;2.78;;;17.00;59.30;;;;;;6182970;23;20779;-72
2021/05/14 05:34:00;;;;;;;6.22;1.75;;;17.00;58.10;;;;;;6181635;23;20013;-73
2021/05/14 05:36:28;;;;;;;6.30;2.00;;;16.90;58.70;;;;;;6183877;23;20064;-72
2021/05/14 05:38:54;;;;;;;7.13;2.28;;;16.80;59.30;;;;;;6181499;23;20009;-72
2021/05/14 05:41:20;;;;;;;5.57;2.13;;;16.70;59.50;;;;;;6182154;23;20087;-72
2021/05/14 05:43:47;;;;;;;5.85;2.22;;;16.70;59.60;;;;;;6181427;23;20017;-73
2021/05/14 05:46:13;;;;;;;8.27;1.77;;;16.70;59.50;;;;;;6181983;23;20024;-73
2021/05/14 05:48:38;;;;;;;5.38;1.90;;;16.70;59.50;;;;;;6156287;23;20059;-73
2021/05/14 05:51:06;;;;;;;6.75;1.95;;;16.70;59.40;;;;;;6154862;23;20017;-72
2021/05/14 05:53:32;;;;;;;8.77;2.17;;;16.60;59.50;;;;;;6181109;23;20017;-72
2021/05/14 05:55:58;;;;;;;6.30;2.10;;;16.60;59.30;;;;;;6181736;23;20017;-69
2021/05/14 05:58:24;;;;;;;7.47;2.00;;;16.50;59.40;;;;;;6181233;23;20430;-69
2021/05/14 06:00:50;;;;;;;8.00;3.00;;;16.60;59.60;;;;;;6180899;23;20028;-69
2021/05/14 06:03:16;;;;;;;7.35;1.92;;;16.60;59.70;;;;;;6155983;23;20081;-68
2021/05/14 06:05:41;;;;;;;8.65;1.95;;;16.60;59.80;;;;;;6181374;23;20021;-68
2021/05/14 06:08:08;;;;;;;6.97;2.53;;;16.60;59.80;;;;;;6181342;23;20017;-70
2021/05/14 06:10:42;;;;;;;7.07;2.70;;;16.60;59.80;;;;;;6181718;23;20064;-70
2021/05/14 06:13:08;;;;;;;7.22;2.35;;;16.50;59.60;;;;;;6154648;23;20016;-71
2021/05/14 06:15:34;;;;;;;7.97;2.63;;;16.50;60.10;;;;;;6182405;23;20060;-72
2021/05/14 06:18:00;;;;;;;6.78;2.38;;;16.50;60.20;;;;;;6181104;23;20020;-72
2021/05/14 06:20:28;;;;;;;9.63;2.90;;;16.50;59.90;;;;;;6182959;23;20386;-73
2021/05/14 06:22:54;;;;;;;14.32;3.17;;;16.50;59.60;;;;;;6180728;23;20013;-72
2021/05/14 06:25:21;;;;;;;6.18;2.10;;;16.50;59.30;;;;;;6180741;23;20016;-72
2021/05/14 06:27:47;;;;;;;8.02;2.85;;;16.40;59.80;;;;;;6183511;23;20020;-72
2021/05/14 06:30:14;;;;;;;9.18;2.75;;;16.40;60.20;;;;;;6182143;23;20024;-72
2021/05/14 06:32:40;;;;;;;7.93;2.45;;;16.50;60.70;;;;;;6180676;23;20036;-72
2021/05/14 06:35:07;;;;;;;8.02;2.92;;;16.70;60.80;;;;;;6180681;23;20067;-72
2021/05/14 06:37:36;;;;;;;6.72;2.42;;;16.90;60.50;;;;;;6153269;23;20013;-72
2021/05/14 06:40:07;;;;;;;8.68;2.40;;;17.00;60.00;;;;;;6180920;23;20116;-73
2021/05/14 06:42:33;;;;;;;8.38;2.20;;;17.10;59.70;;;;;;6151826;23;20013;-72
2021/05/14 06:44:58;;;;;;;8.25;3.15;;;17.20;59.20;;;;;;6180976;23;20502;-72
2021/05/14 06:47:24;;;;;;;8.07;2.13;;;17.30;59.00;;;;;;6181880;23;20013;-72
2021/05/14 06:49:50;;;;;;;5.50;2.13;;;17.30;58.80;;;;;;6179872;23;20013;-72
2021/05/14 06:52:16;;;;;;;7.85;2.33;;;17.40;58.90;;;;;;6182109;23;20383;-72
2021/05/14 06:54:42;;;;;;;7.88;2.50;;;17.40;58.70;;;;;;6180790;23;20009;-72
2021/05/14 06:57:09;;;;;;;7.10;2.17;;;17.50;58.50;;;;;;6156022;23;20514;-72
2021/05/14 06:59:35;;;;;;;13.18;2.15;;;17.50;58.60;;;;;;6181949;23;20023;-72
2021/05/14 07:02:00;;;;;;;11.82;2.75;;;17.50;58.90;;;;;;6181356;23;20089;-69
2021/05/14 07:04:26;;;;;;;11.90;2.58;;;17.50;58.60;;;;;;6180790;23;20024;-68
2021/05/14 07:06:52;;;;;;;5.07;2.00;;;17.50;58.70;;;;;;6154377;23;20017;-71
2021/05/14 07:09:18;;;;;;;6.13;2.42;;;17.50;58.70;;;;;;6155746;23;20091;-72
2021/05/14 07:11:44;;;;;;;9.68;2.60;;;17.50;58.60;;;;;;6180549;23;20451;-71
2021/05/14 07:14:10;;;;;;;12.50;2.50;;;17.50;58.50;;;;;;6129143;23;20040;-71
2021/05/14 07:16:36;;;;;;;9.23;2.45;;;17.50;59.00;;;;;;6181687;23;20017;-71
2021/05/14 07:19:02;;;;;;;7.40;2.33;;;17.60;58.60;;;;;;6182974;23;20021;-71
2021/05/14 07:21:28;;;;;;;6.50;2.25;;;17.50;58.50;;;;;;6155172;23;20013;-71
2021/05/14 07:23:54;;;;;;;5.97;2.20;;;17.50;59.10;;;;;;6154576;23;20080;-70
2021/05/14 07:26:20;;;;;;;9.10;2.35;;;17.50;58.50;;;;;;6181515;23;20664;-70
2021/05/14 07:28:46;;;;;;;5.75;2.30;;;17.50;58.50;;;;;;6180092;23;20013;-74
2021/05/14 07:31:12;;;;;;;5.90;1.65;;;17.50;58.60;;;;;;6183618;23;20346;-71
2021/05/14 07:33:39;;;;;;;8.80;2.97;;;17.50;58.10;;;;;;6131891;23;20023;-72
2021/05/14 07:36:06;;;;;;;5.07;1.85;;;17.50;57.70;;;;;;6132169;23;20020;-72
2021/05/14 07:38:32;;;;;;;6.10;2.35;;;17.50;58.20;;;;;;6180300;23;20088;-71
2021/05/14 07:40:58;;;;;;;6.88;2.53;;;17.50;58.20;;;;;;6180279;23;20009;-70
2021/05/14 07:43:24;;;;;;;6.13;2.42;;;17.50;57.50;;;;;;6155396;23;20084;-71
2021/05/14 07:45:49;;;;;;;5.55;1.95;;;17.50;58.00;;;;;;6182274;23;20017;-71
2021/05/14 07:48:21;;;;;;;6.68;2.50;;;17.60;58.80;;;;;;6156099;23;20009;-70
2021/05/14 07:50:48;;;;;;;9.73;2.22;;;17.60;58.60;;;;;;6158547;23;20013;-70
2021/05/14 07:53:20;;;;;;;8.13;2.60;;;17.70;58.90;;;;;;6182512;23;20031;-71
2021/05/14 07:55:45;;;;;;;10.15;2.72;;;17.70;58.90;;;;;;6182539;23;20021;-71
2021/05/14 07:58:11;;;;;;;10.50;2.72;;;17.70;58.90;;;;;;6181071;23;20020;-72
2021/05/14 08:00:38;;;;;;;9.27;2.45;;;17.70;59.40;;;;;;6182225;23;20339;-69
2021/05/14 08:03:08;;;;;;;16.20;2.75;;;17.70;59.30;;;;;;6183230;23;20047;-71
2021/05/14 08:05:34;;;;;;;10.20;2.80;;;17.80;59.00;;;;;;6181854;23;20040;-70
2021/05/14 08:08:12;;;;;;;5.10;1.80;;;17.90;58.70;;;;;;6184024;23;20013;-69
2021/05/14 08:10:52;;;;;;;17.52;3.15;;;17.90;58.00;;;;;;6181493;23;20042;-70
2021/05/14 08:13:18;;;;;;;12.40;3.47;;;17.90;58.20;;;;;;6156831;23;20013;-70
2021/05/14 08:15:45;;;;;;;7.50;2.10;;;17.90;59.10;;;;;;6156935;23;20055;-68
2021/05/14 08:18:12;;;;;;;11.60;3.55;;;17.90;59.30;;;;;;6180233;23;20052;-70
2021/05/14 08:20:40;;;;;;;11.32;2.70;;;17.60;58.20;;;;;;6132836;23;20013;-71
2021/05/14 08:23:07;;;;;;;7.50;2.88;;;17.20;58.10;;;;;;6183989;23;20024;-72
2021/05/14 08:25:35;;;;;;;7.25;2.97;;;16.90;58.40;;;;;;6156158;23;20071;-68
2021/05/14 08:28:01;;;;;;;10.73;2.17;;;16.50;59.00;;;;;;6183212;23;20021;-69
2021/05/14 08:30:29;;;;;;;10.80;2.97;;;16.20;59.50;;;;;;6155876;23;20032;-70
2021/05/14 08:33:03;;;;;;;5.05;2.13;;;16.00;60.40;;;;;;6181830;23;20017;-68
2021/05/14 08:35:29;;;;;;;8.07;2.55;;;15.80;60.80;;;;;;6182504;23;20048;-68
2021/05/14 08:37:54;;;;;;;10.23;3.10;;;15.60;61.40;;;;;;6181285;23;20075;-67
2021/05/14 08:40:21;;;;;;;12.15;3.00;;;15.80;62.80;;;;;;6182270;23;20037;-67
2021/05/14 08:42:47;;;;;;;8.65;2.80;;;16.00;62.90;;;;;;6181364;23;20020;-67
2021/05/14 08:45:33;;;;;;;7.25;2.33;;;16.20;61.20;;;;;;6159415;23;20382;-67
2021/05/14 08:47:59;;;;;;;12.15;2.70;;;16.10;59.00;;;;;;6182620;23;20024;-67
2021/05/14 08:50:29;;;;;;;9.55;2.72;;;16.00;58.40;;;;;;6182230;23;20013;-67
2021/05/14 08:52:57;;;;;;;12.95;2.58;;;16.00;58.60;;;;;;6181286;23;20024;-70
2021/05/14 08:55:24;;;;;;;8.50;2.25;;;16.10;59.00;;;;;;6181513;23;20037;-69
2021/05/14 08:57:53;;;;;;;25.08;4.35;;;16.20;58.90;;;;;;6181624;23;20024;-70
2021/05/14 09:00:20;;;;;;;19.20;3.92;;;16.40;58.70;;;;;;6181422;23;20020;-71
2021/05/14 09:02:46;;;;;;;10.70;3.33;;;16.40;58.10;;;;;;6182997;23;20067;-69
2021/05/14 09:05:28;;;;;;;12.18;2.60;;;16.20;58.10;;;;;;6183465;23;20343;-71
2021/05/14 09:07:55;;;;;;;7.93;2.42;;;16.00;58.10;;;;;;6182336;23;20017;-69
2021/05/14 09:10:25;;;;;;;8.05;2.35;;;15.80;58.70;;;;;;6181840;23;20009;-69
2021/05/14 09:12:52;;;;;;;7.28;2.05;;;15.90;59.40;;;;;;6179938;23;20013;-67
2021/05/14 09:15:26;;;;;;;9.10;2.45;;;16.10;59.50;;;;;;6180869;23;20035;-67
2021/05/14 09:18:21;;;;;;;6.57;1.92;;;16.30;59.30;;;;;;6182706;23;20068;-69
2021/05/14 09:20:55;;;;;;;10.23;2.85;;;16.50;59.20;;;;;;6150098;23;20092;-70
2021/05/14 09:23:21;;;;;;;9.23;2.30;;;16.80;59.20;;;;;;6181953;23;20013;-70
2021/05/14 09:25:55;;;;;;;15.57;2.70;;;17.00;58.40;;;;;;6182284;23;20079;-70
2021/05/14 09:28:25;;;;;;;16.33;3.25;;;17.30;57.70;;;;;;6180942;23;20076;-70
2021/05/14 09:31:20;;;;;;;13.43;3.10;;;17.40;57.10;;;;;;6181187;23;20013;-70
2021/05/14 09:33:51;;;;;;;10.93;2.22;;;17.60;56.90;;;;;;6182637;23;20013;-70
2021/05/14 09:36:19;;;;;;;9.75;2.67;;;17.50;56.70;;;;;;6155219;23;20530;-70
2021/05/14 09:38:53;;;;;;;9.38;2.35;;;17.50;56.50;;;;;;6181286;23;20013;-70
2021/05/14 09:41:25;;;;;;;8.95;2.58;;;17.60;56.40;;;;;;6182383;23;20012;-70
2021/05/14 09:43:57;;;;;;;7.15;2.00;;;17.70;56.10;;;;;;6154656;23;20021;-71
2021/05/14 09:46:31;;;;;;;7.45;1.90;;;17.80;55.80;;;;;;6180836;23;20021;-68
2021/05/14 09:49:09;;;;;;;10.63;2.67;;;17.90;55.90;;;;;;6180949;23;20620;-68
2021/05/14 09:51:45;;;;;;;7.82;2.00;;;17.90;55.90;;;;;;6180571;23;20071;-70
2021/05/14 09:54:29;;;;;;;6.10;1.90;;;17.90;56.20;;;;;;6182541;23;20017;-69
2021/05/14 09:59:54;;;;;;;7.35;1.92;;;18.10;55.90;;;;;;6182563;23;20020;-67
2021/05/14 10:02:29;;;;;;;8.25;2.42;;;18.10;56.00;;;;;;6180510;23;20598;-70
2021/05/14 10:05:00;;;;;;;7.28;2.83;;;18.20;55.70;;;;;;6180763;23;20020;-68
2021/05/14 10:07:31;;;;;;;9.07;2.50;;;18.20;55.70;;;;;;6180501;23;20023;-68
2021/05/14 10:10:00;;;;;;;8.77;2.97;;;18.30;55.90;;;;;;6182225;23;20012;-68
2021/05/14 10:12:31;;;;;;;6.93;2.05;;;18.40;55.50;;;;;;6181819;23;20016;-67
2021/05/14 10:14:58;;;;;;;8.45;2.17;;;18.40;54.90;;;;;;6180130;23;20438;-66
2021/05/14 10:17:29;;;;;;;7.53;2.33;;;18.50;54.50;;;;;;6180975;23;20104;-67
2021/05/14 10:19:57;;;;;;;9.15;2.22;;;18.70;54.10;;;;;;6180569;23;20020;-68
2021/05/14 10:22:33;;;;;;;7.32;2.22;;;18.80;53.80;;;;;;6180738;23;20017;-68
2021/05/14 10:25:00;;;;;;;7.90;2.13;;;18.80;53.70;;;;;;6182106;23;20049;-68
2021/05/14 10:27:27;;;;;;;7.75;2.28;;;18.70;53.00;;;;;;6181257;23;20024;-68
2021/05/14 10:29:55;;;;;;;9.20;2.15;;;18.60;53.30;;;;;;6180831;23;20013;-68
2021/05/14 10:32:43;;;;;;;8.52;2.58;;;18.60;53.30;;;;;;6180531;23;20013;-67
2021/05/14 10:35:16;;;;;;;6.03;1.52;;;18.60;52.90;;;;;;6178187;23;20335;-68
2021/05/14 10:37:52;;;;;;;4.05;1.70;;;18.50;53.40;;;;;;6145701;23;20021;-68
2021/05/14 10:40:34;;;;;;;8.98;2.17;;;18.60;54.70;;;;;;6173308;23;20024;-67
2021/05/14 10:43:11;;;;;;;7.30;2.08;;;18.80;54.20;;;;;;6174597;23;20096;-68
2021/05/14 10:45:45;;;;;;;5.90;2.17;;;18.80;53.70;;;;;;6172944;23;20038;-67
2021/05/14 10:50:46;;;;;;;5.38;1.35;;;18.60;53.90;;;;;;6174337;23;20017;-68
2021/05/14 10:53:29;;;;;;;10.52;2.63;;;18.60;54.60;;;;;;6173143;23;20458;-68
2021/05/14 10:56:16;;;;;;;5.63;1.58;;;18.80;53.00;;;;;;6178768;23;20009;-69
2021/05/14 10:59:17;;;;;;;6.40;1.73;;;18.70;54.20;;;;;;6151928;23;20451;-69
2021/05/14 11:01:44;;;;;;;5.93;2.17;;;18.70;54.10;;;;;;6134048;23;20021;-69
2021/05/14 11:04:12;;;;;;;8.60;2.90;;;18.80;55.00;;;;;;6180584;23;20032;-68
2021/05/14 11:06:42;;;;;;;7.13;2.00;;;18.90;54.60;;;;;;6181771;23;20016;-68
2021/05/14 11:09:10;;;;;;;8.43;2.10;;;18.90;54.60;;;;;;6179899;23;20429;-68
2021/05/14 11:12:08;;;;;;;7.00;2.05;;;18.90;54.90;;;;;;6181279;23;20782;-68
2021/05/14 11:14:47;;;;;;;4.43;1.70;;;19.00;55.10;;;;;;6180367;23;20111;-68
2021/05/14 11:17:19;;;;;;;3.22;1.67;;;19.10;55.00;;;;;;6155525;23;20442;-69
2021/05/14 11:19:50;;;;;;;5.20;1.95;;;19.10;54.90;;;;;;6183009;23;20017;-68
2021/05/14 11:22:26;;;;;;;6.45;2.10;;;19.20;55.00;;;;;;6182179;23;20017;-67
2021/05/14 11:25:13;;;;;;;4.35;1.65;;;19.30;55.40;;;;;;6182166;23;20017;-68
2021/05/14 11:27:39;;;;;;;7.20;2.40;;;19.30;56.80;;;;;;6182245;23;20351;-69
2021/05/14 11:30:14;;;;;;;7.75;2.08;;;19.30;56.70;;;;;;6182198;23;20009;-69
2021/05/14 11:32:44;;;;;;;7.32;2.30;;;19.30;57.20;;;;;;6182593;23;20455;-68
2021/05/14 11:35:21;;;;;;;5.13;1.58;;;19.40;57.20;;;;;;6181855;23;20017;-67
2021/05/14 11:37:53;;;;;;;7.10;2.03;;;19.30;56.50;;;;;;6183384;23;20036;-70
2021/05/14 11:40:25;;;;;;;8.32;2.20;;;19.30;56.50;;;;;;6181999;23;20052;-70
2021/05/14 11:42:54;;;;;;;6.10;2.08;;;19.20;56.40;;;;;;6181969;23;20618;-70
2021/05/14 11:45:31;;;;;;;9.45;1.88;;;19.10;55.30;;;;;;6182655;23;20028;-70
2021/05/14 11:48:21;;;;;;;8.37;1.87;;;19.10;55.70;;;;;;6159996;23;20329;-70
2021/05/14 11:50:57;;;;;;;6.20;1.90;;;19.10;55.80;;;;;;6182321;23;20093;-71
2021/05/14 11:53:24;;;;;;;6.07;2.10;;;19.10;55.70;;;;;;6182859;23;20023;-71
2021/05/14 11:55:52;;;;;;;8.52;2.55;;;19.10;54.80;;;;;;6182411;23;20017;-72
2021/05/14 11:58:18;;;;;;;4.55;1.92;;;19.10;55.20;;;;;;6184551;23;20100;-72
2021/05/14 12:00:46;;;;;;;8.52;2.40;;;18.90;54.90;;;;;;6183898;23;20020;-63
2021/05/14 12:03:13;;;;;;;6.10;2.00;;;18.90;54.20;;;;;;6157072;23;20013;-62
2021/05/14 12:05:41;;;;;;;5.75;2.05;;;18.80;55.00;;;;;;6181764;23;20088;-62
2021/05/14 12:08:17;;;;;;;7.32;2.33;;;18.90;55.50;;;;;;6181783;23;20013;-63
2021/05/14 12:11:08;;;;;;;6.97;2.22;;;18.90;55.60;;;;;;6155980;23;20017;-63
2021/05/14 12:13:40;;;;;;;7.30;2.65;;;19.00;55.20;;;;;;6183836;23;20040;-63
2021/05/14 12:16:08;;;;;;;4.10;1.63;;;19.00;55.40;;;;;;6155741;23;20017;-63
2021/05/14 12:18:36;;;;;;;4.72;2.30;;;19.00;55.00;;;;;;6181762;23;20541;-62
2021/05/14 12:21:06;;;;;;;6.20;2.22;;;18.90;55.00;;;;;;6154522;23;20096;-62
2021/05/14 12:23:33;;;;;;;4.82;1.90;;;18.70;54.50;;;;;;6183388;23;20013;-62
2021/05/14 12:26:00;;;;;;;3.75;1.80;;;18.70;55.40;;;;;;6184133;23;20025;-63
2021/05/14 12:28:32;;;;;;;7.28;3.17;;;18.70;55.10;;;;;;6180995;23;20016;-71
2021/05/14 12:30:59;;;;;;;7.80;1.88;;;18.70;54.50;;;;;;6182972;23;20056;-71
2021/05/14 12:33:25;;;;;;;8.30;2.53;;;18.70;55.20;;;;;;6182923;23;20052;-72
2021/05/14 12:35:59;;;;;;;5.10;2.55;;;18.70;55.40;;;;;;6181791;23;20013;-71
2021/05/14 12:38:39;;;;;;;6.53;3.30;;;18.60;55.50;;;;;;6183896;23;20028;-71
2021/05/14 12:41:18;;;;;;;5.28;2.20;;;18.60;55.50;;;;;;6183401;23;20068;-71
2021/05/14 12:43:44;;;;;;;8.38;3.15;;;18.60;56.30;;;;;;6182691;23;20512;-70
2021/05/14 12:46:10;;;;;;;7.30;2.20;;;18.60;55.20;;;;;;6181922;23;20101;-70
2021/05/14 12:48:36;;;;;;;5.18;2.08;;;18.70;55.50;;;;;;6182930;23;20443;-70
2021/05/14 12:51:02;;;;;;;8.57;2.55;;;18.80;56.30;;;;;;6182198;23;20402;-71
2021/05/14 12:53:28;;;;;;;5.93;2.63;;;18.90;56.00;;;;;;6180466;23;20079;-71
2021/05/14 12:55:53;;;;;;;5.88;1.85;;;19.10;56.20;;;;;;6181881;23;20439;-71
2021/05/14 12:58:19;;;;;;;4.38;2.67;;;19.20;56.00;;;;;;6179761;23;20049;-71
2021/05/14 13:00:45;;;;;;;6.25;2.58;;;19.20;55.90;;;;;;6181123;23;20017;-71